Time;durP1;ratioP1;P1;durP2;ratioP2;P2;SDS_P1;SDS_P2;PMS_P1;PMS_P2;Temp;Humidity;BMP_temperature;BMP_pressure;BME280_temperature;BME280_humidity;BME280_pressure;Samples;Min_cycle;Max_cycle;Signal;HPM_P1;HPM_P2
2024/01/15 00:00:11;;;;;;;9.55;6.25;;;;;;;;;;1038239;28;20581;-66
2024/01/15 00:00:43;;;;;;;10.57;5.65;;;;;;;;;;1039638;28;20077;-65
2024/01/15 00:01:33;;;;;;;11.40;6.22;;;;;;;;;;1040544;28;20702;-66
2024/01/15 00:02:04;;;;;;;11.82;6.90;;;;;;;;;;1038509;28;20496;-66
2024/01/15 00:02:34;;;;;;;10.07;6.53;;;;;;;;;;1037625;28;20394;-66
2024/01/15 00:03:05;;;;;;;14.02;6.10;;;;;;;;;;1038076;28;20807;-66
2024/01/15 00:03:36;;;;;;;9.43;6.38;;;;;;;;;;1037860;28;20060;-66
2024/01/15 00:04:06;;;;;;;9.65;6.25;;;;;;;;;;1037856;28;20046;-66
2024/01/15 00:04:40;;;;;;;11.48;5.90;;;;;;;;;;1037753;28;20084;-65
2024/01/15 00:05:11;;;;;;;12.38;6.03;;;;;;;;;;1037901;28;20410;-66
2024/01/15 00:05:41;;;;;;;11.88;6.15;;;;;;;;;;1038118;28;20501;-65
2024/01/15 00:06:12;;;;;;;11.80;7.32;;;;;;;;;;1038017;28;20041;-65
2024/01/15 00:06:42;;;;;;;10.20;5.57;;;;;;;;;;1037830;28;20034;-65
2024/01/15 00:07:13;;;;;;;10.73;6.20;;;;;;;;;;1037820;28;20894;-65
2024/01/15 00:07:43;;;;;;;9.80;6.20;;;;;;;;;;1037811;28;20226;-66
2024/01/15 00:08:14;;;;;;;10.63;6.68;;;;;;;;;;1038047;28;20406;-65
2024/01/15 00:08:44;;;;;;;11.60;6.10;;;;;;;;;;1037907;28;20049;-66
2024/01/15 00:09:15;;;;;;;10.10;6.35;;;;;;;;;;1037687;28;20793;-65
2024/01/15 00:09:46;;;;;;;11.48;6.75;;;;;;;;;;1037913;28;20489;-65
2024/01/15 00:10:16;;;;;;;12.00;6.32;;;;;;;;;;1037827;28;20057;-66
2024/01/15 00:10:47;;;;;;;9.45;6.57;;;;;;;;;;1037743;28;20132;-66
2024/01/15 00:11:17;;;;;;;9.52;6.53;;;;;;;;;;1037929;28;20045;-66
2024/01/15 00:11:48;;;;;;;9.23;6.18;;;;;;;;;;1037996;28;20057;-66
2024/01/15 00:12:18;;;;;;;15.52;6.57;;;;;;;;;;1038484;28;20064;-66
2024/01/15 00:12:49;;;;;;;11.25;6.68;;;;;;;;;;1037458;28;20045;-66
2024/01/15 00:13:19;;;;;;;9.15;6.22;;;;;;;;;;1038513;28;20061;-66
2024/01/15 00:13:50;;;;;;;11.02;6.38;;;;;;;;;;1037144;28;20140;-65
2024/01/15 00:14:20;;;;;;;10.73;6.00;;;;;;;;;;1038109;28;20084;-65
2024/01/15 00:14:51;;;;;;;10.13;6.00;;;;;;;;;;1037237;28;20053;-66
2024/01/15 00:15:22;;;;;;;7.93;5.82;;;;;;;;;;1037969;28;20053;-66
2024/01/15 00:15:52;;;;;;;11.75;6.85;;;;;;;;;;1038238;28;20057;-66
2024/01/15 00:16:23;;;;;;;15.25;7.22;;;;;;;;;;1037924;28;20736;-66
2024/01/15 00:16:55;;;;;;;10.98;6.60;;;;;;;;;;1037988;28;20107;-65
2024/01/15 00:17:25;;;;;;;11.68;5.97;;;;;;;;;;1035319;28;20065;-66
2024/01/15 00:17:55;;;;;;;11.10;6.60;;;;;;;;;;1037946;28;20156;-66
2024/01/15 00:18:26;;;;;;;11.40;6.57;;;;;;;;;;1038040;28;20378;-65
2024/01/15 00:18:56;;;;;;;11.43;6.75;;;;;;;;;;1037671;28;20052;-66
2024/01/15 00:19:27;;;;;;;10.32;6.35;;;;;;;;;;1038546;28;20038;-66
2024/01/15 00:19:58;;;;;;;10.52;6.57;;;;;;;;;;1041783;28;20056;-66
2024/01/15 00:20:28;;;;;;;9.77;6.43;;;;;;;;;;1042050;28;20056;-66
2024/01/15 00:20:59;;;;;;;10.07;6.45;;;;;;;;;;1041540;28;20057;-65
2024/01/15 00:21:29;;;;;;;12.68;6.20;;;;;;;;;;1041497;28;20158;-66
2024/01/15 00:22:00;;;;;;;11.10;6.40;;;;;;;;;;1041683;28;20056;-65
2024/01/15 00:22:31;;;;;;;12.10;6.22;;;;;;;;;;1041765;28;20111;-66
2024/01/15 00:23:02;;;;;;;9.48;5.72;;;;;;;;;;1041895;28;20437;-66
2024/01/15 00:23:32;;;;;;;12.38;5.90;;;;;;;;;;1042209;28;20807;-66
2024/01/15 00:24:03;;;;;;;11.00;5.78;;;;;;;;;;1041883;28;20210;-65
2024/01/15 00:24:34;;;;;;;10.07;6.28;;;;;;;;;;1042098;28;20789;-65
2024/01/15 00:25:04;;;;;;;10.55;6.05;;;;;;;;;;1042321;28;20052;-65
2024/01/15 00:25:35;;;;;;;10.05;6.40;;;;;;;;;;1041838;28;20063;-65
2024/01/15 00:26:05;;;;;;;10.38;6.50;;;;;;;;;;1042529;28;20410;-66
2024/01/15 00:26:37;;;;;;;10.63;6.05;;;;;;;;;;1041759;28;20409;-65
2024/01/15 00:27:07;;;;;;;10.00;6.72;;;;;;;;;;1042622;28;20041;-66
2024/01/15 00:27:38;;;;;;;12.00;6.53;;;;;;;;;;1039691;28;20559;-66
2024/01/15 00:28:08;;;;;;;10.68;6.55;;;;;;;;;;1038396;28;20433;-66
2024/01/15 00:28:39;;;;;;;9.48;6.07;;;;;;;;;;1037782;28;20136;-66
2024/01/15 00:29:09;;;;;;;16.05;7.13;;;;;;;;;;1037899;28;20053;-66
2024/01/15 00:29:40;;;;;;;13.00;7.10;;;;;;;;;;1039128;28;20049;-66
2024/01/15 00:30:11;;;;;;;10.85;6.93;;;;;;;;;;1042152;28;20060;-66
2024/01/15 00:30:41;;;;;;;12.00;6.75;;;;;;;;;;1041700;28;20434;-65
2024/01/15 00:31:12;;;;;;;9.75;6.88;;;;;;;;;;1042460;28;20490;-65
2024/01/15 00:31:42;;;;;;;9.73;6.68;;;;;;;;;;1041795;28;20099;-65
2024/01/15 00:32:13;;;;;;;10.63;6.72;;;;;;;;;;1042102;28;20088;-65
2024/01/15 00:32:43;;;;;;;10.88;7.30;;;;;;;;;;1042093;28;20045;-65
2024/01/15 00:33:14;;;;;;;13.57;6.55;;;;;;;;;;1042010;28;20060;-65
2024/01/15 00:33:45;;;;;;;10.52;6.22;;;;;;;;;;1042062;28;20059;-65
2024/01/15 00:34:16;;;;;;;11.98;7.10;;;;;;;;;;1042162;28;20053;-65
2024/01/15 00:34:46;;;;;;;12.57;7.22;;;;;;;;;;1041413;28;20103;-66
2024/01/15 00:35:17;;;;;;;11.50;7.35;;;;;;;;;;1042832;28;20057;-65
2024/01/15 00:35:47;;;;;;;14.93;7.28;;;;;;;;;;1041214;28;20056;-65
2024/01/15 00:36:18;;;;;;;9.57;7.07;;;;;;;;;;1042688;28;20076;-65
2024/01/15 00:36:48;;;;;;;10.70;7.00;;;;;;;;;;1041179;28;20045;-65
2024/01/15 00:37:19;;;;;;;9.25;6.72;;;;;;;;;;1042627;28;20053;-65
2024/01/15 00:37:49;;;;;;;10.68;7.10;;;;;;;;;;1041518;28;20444;-65
2024/01/15 00:38:20;;;;;;;10.07;6.70;;;;;;;;;;1042486;28;20133;-65
2024/01/15 00:38:51;;;;;;;9.90;6.20;;;;;;;;;;1041554;28;20049;-66
2024/01/15 00:39:21;;;;;;;12.15;7.88;;;;;;;;;;1042253;28;20133;-66
2024/01/15 00:39:52;;;;;;;10.68;6.70;;;;;;;;;;1041969;28;20049;-66
2024/01/15 00:40:22;;;;;;;9.50;6.70;;;;;;;;;;1042181;28;20045;-66
2024/01/15 00:40:54;;;;;;;10.65;6.82;;;;;;;;;;1041715;28;20055;-65
2024/01/15 00:41:27;;;;;;;9.55;6.82;;;;;;;;;;1042206;28;20072;-65
2024/01/15 00:41:58;;;;;;;12.63;6.55;;;;;;;;;;1041640;28;20488;-65
2024/01/15 00:42:28;;;;;;;12.27;7.28;;;;;;;;;;1041505;28;20051;-65
2024/01/15 00:42:59;;;;;;;14.32;7.93;;;;;;;;;;1042479;28;20093;-65
2024/01/15 00:43:29;;;;;;;12.63;7.05;;;;;;;;;;1041712;28;20126;-65
2024/01/15 00:44:00;;;;;;;12.23;6.93;;;;;;;;;;1042284;28;20045;-65
2024/01/15 00:44:31;;;;;;;8.70;6.63;;;;;;;;;;1041794;28;20507;-65
2024/01/15 00:45:01;;;;;;;10.15;6.97;;;;;;;;;;1041884;28;20052;-65
2024/01/15 00:45:32;;;;;;;9.75;6.75;;;;;;;;;;1042336;28;20552;-65
2024/01/15 00:46:03;;;;;;;10.63;6.85;;;;;;;;;;1041922;28;20053;-65
2024/01/15 00:46:40;;;;;;;10.48;7.07;;;;;;;;;;1041863;28;20049;-65
2024/01/15 00:47:11;;;;;;;9.45;6.60;;;;;;;;;;1041411;28;20417;-66
2024/01/15 00:47:41;;;;;;;12.20;6.63;;;;;;;;;;1041807;28;20525;-65
2024/01/15 00:48:12;;;;;;;12.63;7.15;;;;;;;;;;1041710;28;20497;-65
2024/01/15 00:48:43;;;;;;;10.30;7.07;;;;;;;;;;1042109;28;20053;-66
2024/01/15 00:49:14;;;;;;;11.68;7.40;;;;;;;;;;1041799;28;20140;-66
2024/01/15 00:49:45;;;;;;;13.27;7.03;;;;;;;;;;1041991;28;20049;-65
2024/01/15 00:50:15;;;;;;;11.40;7.13;;;;;;;;;;1042384;28;20055;-66
2024/01/15 00:50:45;;;;;;;12.07;6.53;;;;;;;;;;1041363;28;20090;-66
2024/01/15 00:51:16;;;;;;;11.27;7.03;;;;;;;;;;1042673;28;20075;-66
2024/01/15 00:51:47;;;;;;;11.02;6.93;;;;;;;;;;1041258;28;20064;-65
2024/01/15 00:52:18;;;;;;;12.45;7.10;;;;;;;;;;1042649;28;20534;-65
2024/01/15 00:52:48;;;;;;;10.00;6.85;;;;;;;;;;1038390;28;20095;-66
2024/01/15 00:53:19;;;;;;;11.65;6.60;;;;;;;;;;1038329;28;20050;-65
2024/01/15 00:53:50;;;;;;;11.25;7.57;;;;;;;;;;1037432;28;20137;-65
2024/01/15 00:54:20;;;;;;;9.85;6.88;;;;;;;;;;1038310;28;20049;-65
2024/01/15 00:54:51;;;;;;;9.02;6.97;;;;;;;;;;1037332;28;20592;-65
2024/01/15 00:55:21;;;;;;;11.30;7.57;;;;;;;;;;1038341;28;20053;-65
2024/01/15 00:55:52;;;;;;;10.98;6.57;;;;;;;;;;1040727;28;20049;-65
2024/01/15 00:56:22;;;;;;;10.35;6.70;;;;;;;;;;1042588;28;20048;-65
2024/01/15 00:56:54;;;;;;;12.57;7.32;;;;;;;;;;1041907;28;20421;-66
2024/01/15 00:57:25;;;;;;;10.50;6.53;;;;;;;;;;1041705;28;20095;-66
2024/01/15 00:57:55;;;;;;;12.93;7.70;;;;;;;;;;1042082;28;20057;-65
2024/01/15 00:58:26;;;;;;;11.55;7.35;;;;;;;;;;1042059;28;20048;-65
2024/01/15 00:58:57;;;;;;;10.70;6.88;;;;;;;;;;1041812;28;20055;-66
2024/01/15 00:59:27;;;;;;;11.48;7.20;;;;;;;;;;1041772;28;20056;-66
2024/01/15 00:59:58;;;;;;;11.60;7.22;;;;;;;;;;1041640;28;20110;-65
2024/01/15 01:00:28;;;;;;;11.00;7.07;;;;;;;;;;1040954;28;20045;-66
2024/01/15 01:00:59;;;;;;;9.70;6.60;;;;;;;;;;1042022;28;20504;-65
2024/01/15 01:01:29;;;;;;;9.45;7.32;;;;;;;;;;1041402;28;20167;-66
2024/01/15 01:02:00;;;;;;;12.07;7.47;;;;;;;;;;1041321;28;20072;-65
2024/01/15 01:02:30;;;;;;;10.05;6.70;;;;;;;;;;1041812;28;20036;-65
2024/01/15 01:03:01;;;;;;;11.95;7.47;;;;;;;;;;1041836;28;20577;-65
2024/01/15 01:03:32;;;;;;;12.25;7.72;;;;;;;;;;1042095;28;20566;-65
2024/01/15 01:04:03;;;;;;;10.60;7.15;;;;;;;;;;1041923;28;20116;-65
2024/01/15 01:04:33;;;;;;;14.73;7.35;;;;;;;;;;1041028;28;20045;-65
2024/01/15 01:05:04;;;;;;;10.55;7.43;;;;;;;;;;1037675;28;20635;-66
2024/01/15 01:05:34;;;;;;;11.70;7.32;;;;;;;;;;1037769;28;20167;-65
2024/01/15 01:06:05;;;;;;;12.73;7.18;;;;;;;;;;1038360;28;20041;-65
2024/01/15 01:06:36;;;;;;;11.85;7.50;;;;;;;;;;1038225;28;20056;-65
2024/01/15 01:07:06;;;;;;;9.88;7.05;;;;;;;;;;1042427;28;20052;-65
2024/01/15 01:07:37;;;;;;;11.32;6.90;;;;;;;;;;1039789;28;20046;-65
2024/01/15 01:08:07;;;;;;;10.75;7.22;;;;;;;;;;1041940;28;20057;-65
2024/01/15 01:08:39;;;;;;;12.30;7.53;;;;;;;;;;1041209;28;20056;-65
2024/01/15 01:09:09;;;;;;;11.75;7.32;;;;;;;;;;1041927;28;20559;-65
2024/01/15 01:09:40;;;;;;;13.07;7.78;;;;;;;;;;1041057;28;20059;-66
2024/01/15 01:10:10;;;;;;;12.18;7.45;;;;;;;;;;1042201;28;20416;-65
2024/01/15 01:10:42;;;;;;;10.93;7.10;;;;;;;;;;1042976;28;20102;-65
2024/01/15 01:11:14;;;;;;;11.07;7.28;;;;;;;;;;1041804;28;20057;-65
2024/01/15 01:11:44;;;;;;;12.90;8.30;;;;;;;;;;1042664;28;20052;-65
2024/01/15 01:12:15;;;;;;;12.25;7.72;;;;;;;;;;1042461;28;20049;-64
2024/01/15 01:12:46;;;;;;;10.55;7.63;;;;;;;;;;1042883;28;20053;-66
2024/01/15 01:13:17;;;;;;;11.65;8.25;;;;;;;;;;1042480;28;20048;-65
2024/01/15 01:13:47;;;;;;;13.27;6.85;;;;;;;;;;1042587;28;22069;-65
2024/01/15 01:14:18;;;;;;;12.15;7.40;;;;;;;;;;1042895;28;20543;-66
2024/01/15 01:14:48;;;;;;;10.93;6.95;;;;;;;;;;1042627;28;20520;-65
2024/01/15 01:15:18;;;;;;;13.70;7.55;;;;;;;;;;1043325;28;20045;-65
2024/01/15 01:15:49;;;;;;;14.98;8.20;;;;;;;;;;1042089;28;20118;-65
2024/01/15 01:16:19;;;;;;;12.70;8.35;;;;;;;;;;1043453;28;20049;-65
2024/01/15 01:16:50;;;;;;;12.35;8.07;;;;;;;;;;1042222;28;20045;-66
2024/01/15 01:17:21;;;;;;;12.68;8.07;;;;;;;;;;1043011;28;20053;-66
2024/01/15 01:17:51;;;;;;;11.65;8.15;;;;;;;;;;1042178;28;20053;-66
2024/01/15 01:18:22;;;;;;;11.57;7.85;;;;;;;;;;1043052;28;20087;-65
2024/01/15 01:18:52;;;;;;;14.50;7.90;;;;;;;;;;1042514;28;20604;-65
2024/01/15 01:19:23;;;;;;;12.15;8.43;;;;;;;;;;1042754;28;20591;-65
2024/01/15 01:19:53;;;;;;;10.90;7.93;;;;;;;;;;1042447;28;20045;-65
2024/01/15 01:20:24;;;;;;;11.18;7.82;;;;;;;;;;1042962;28;20151;-66
2024/01/15 01:20:54;;;;;;;12.00;7.80;;;;;;;;;;1042236;28;20049;-65
2024/01/15 01:21:25;;;;;;;14.05;8.35;;;;;;;;;;1043142;28;20044;-65
2024/01/15 01:21:55;;;;;;;11.13;7.72;;;;;;;;;;1042444;28;20052;-65
2024/01/15 01:22:26;;;;;;;11.18;7.93;;;;;;;;;;1042719;28;20048;-65
2024/01/15 01:22:56;;;;;;;15.55;7.97;;;;;;;;;;1042469;28;20685;-65
2024/01/15 01:23:27;;;;;;;13.10;7.93;;;;;;;;;;1042845;28;20079;-65
2024/01/15 01:23:58;;;;;;;12.25;8.38;;;;;;;;;;1042522;28;20060;-65
2024/01/15 01:24:28;;;;;;;14.60;8.82;;;;;;;;;;1042394;28;20405;-65
2024/01/15 01:24:59;;;;;;;14.05;8.98;;;;;;;;;;1043104;28;20052;-65
2024/01/15 01:25:29;;;;;;;12.82;8.48;;;;;;;;;;1042274;28;20067;-65
2024/01/15 01:26:00;;;;;;;13.75;8.63;;;;;;;;;;1043145;28;20053;-65
2024/01/15 01:26:31;;;;;;;12.95;8.15;;;;;;;;;;1042756;28;20040;-66
2024/01/15 01:27:02;;;;;;;15.63;8.18;;;;;;;;;;1042835;28;20051;-65
2024/01/15 01:27:33;;;;;;;13.70;8.88;;;;;;;;;;1041418;28;20041;-66
2024/01/15 01:28:03;;;;;;;12.77;8.55;;;;;;;;;;1042411;28;20045;-66
2024/01/15 01:28:34;;;;;;;13.45;8.85;;;;;;;;;;1042658;28;20045;-65
2024/01/15 01:29:04;;;;;;;11.93;8.07;;;;;;;;;;1042681;28;20095;-65
2024/01/15 01:29:35;;;;;;;14.40;8.45;;;;;;;;;;1042675;28;20044;-65
2024/01/15 01:30:06;;;;;;;13.80;8.48;;;;;;;;;;1043041;28;20064;-66
2024/01/15 01:30:36;;;;;;;13.98;8.60;;;;;;;;;;1042159;28;20068;-65
2024/01/15 01:31:08;;;;;;;13.75;9.13;;;;;;;;;;1042717;28;20048;-65
2024/01/15 01:31:45;;;;;;;11.93;8.52;;;;;;;;;;1042472;28;20045;-65
2024/01/15 01:32:16;;;;;;;13.55;8.52;;;;;;;;;;1042534;28;20048;-65
2024/01/15 01:32:46;;;;;;;13.93;8.27;;;;;;;;;;1042090;28;20064;-65
2024/01/15 01:33:17;;;;;;;13.13;8.68;;;;;;;;;;1043003;28;20076;-65
2024/01/15 01:33:47;;;;;;;13.50;8.85;;;;;;;;;;1042362;28;21154;-65
2024/01/15 01:34:18;;;;;;;14.05;8.65;;;;;;;;;;1043191;28;20122;-65
2024/01/15 01:34:48;;;;;;;11.68;8.07;;;;;;;;;;1041938;28;20508;-65
2024/01/15 01:35:19;;;;;;;13.10;9.68;;;;;;;;;;1043015;28;20091;-65
2024/01/15 01:35:49;;;;;;;14.15;9.05;;;;;;;;;;1042247;28;20049;-65
2024/01/15 01:36:20;;;;;;;12.63;8.60;;;;;;;;;;1042514;28;20049;-65
2024/01/15 01:36:50;;;;;;;14.30;8.80;;;;;;;;;;1041990;28;20146;-65
2024/01/15 01:37:21;;;;;;;11.82;8.50;;;;;;;;;;1042535;28;20083;-65
2024/01/15 01:37:51;;;;;;;14.20;8.73;;;;;;;;;;1041683;28;20056;-65
2024/01/15 01:38:22;;;;;;;13.15;8.43;;;;;;;;;;1042869;28;20092;-65
2024/01/15 01:38:52;;;;;;;13.07;8.82;;;;;;;;;;1042129;28;20049;-65
2024/01/15 01:39:23;;;;;;;14.10;8.82;;;;;;;;;;1043182;28;20397;-65
2024/01/15 01:39:53;;;;;;;15.73;9.07;;;;;;;;;;1042265;28;20413;-66
2024/01/15 01:40:24;;;;;;;14.93;8.43;;;;;;;;;;1042777;28;20477;-65
2024/01/15 01:40:54;;;;;;;14.43;8.57;;;;;;;;;;1042385;28;20099;-65
2024/01/15 01:41:25;;;;;;;12.50;8.73;;;;;;;;;;1043090;28;20052;-65
2024/01/15 01:41:56;;;;;;;13.50;8.57;;;;;;;;;;1038651;28;20065;-65
2024/01/15 01:42:26;;;;;;;14.23;8.20;;;;;;;;;;1037974;28;20057;-65
2024/01/15 01:42:57;;;;;;;14.48;9.20;;;;;;;;;;1042671;28;20123;-65
2024/01/15 01:43:27;;;;;;;12.30;8.43;;;;;;;;;;1043241;28;20049;-66
2024/01/15 01:43:58;;;;;;;15.80;10.13;;;;;;;;;;1042343;28;20057;-65
2024/01/15 01:44:28;;;;;;;13.85;9.07;;;;;;;;;;1042571;28;20080;-66
2024/01/15 01:44:59;;;;;;;12.15;8.43;;;;;;;;;;1042653;28;20052;-65
2024/01/15 01:45:29;;;;;;;12.52;8.30;;;;;;;;;;1042397;28;20041;-65
2024/01/15 01:46:01;;;;;;;15.82;9.10;;;;;;;;;;1042759;28;20052;-65
2024/01/15 01:46:33;;;;;;;14.20;9.15;;;;;;;;;;1042218;28;20059;-65
2024/01/15 01:47:04;;;;;;;15.43;9.15;;;;;;;;;;1042681;28;20056;-65
2024/01/15 01:47:35;;;;;;;14.27;8.85;;;;;;;;;;1042441;28;20052;-65
2024/01/15 01:48:05;;;;;;;13.60;8.88;;;;;;;;;;1043025;28;20045;-65
2024/01/15 01:48:36;;;;;;;14.20;9.05;;;;;;;;;;1041999;28;20049;-65
2024/01/15 01:49:08;;;;;;;15.68;8.40;;;;;;;;;;1043108;28;20810;-66
2024/01/15 01:49:39;;;;;;;12.95;8.73;;;;;;;;;;1041946;28;20110;-65
2024/01/15 01:50:09;;;;;;;11.77;8.13;;;;;;;;;;1043227;28;20546;-65
2024/01/15 01:50:40;;;;;;;14.30;8.70;;;;;;;;;;1042424;28;20045;-65
2024/01/15 01:51:11;;;;;;;12.68;8.57;;;;;;;;;;1042575;28;20474;-65
2024/01/15 01:51:41;;;;;;;13.05;8.35;;;;;;;;;;1041416;28;20071;-65
2024/01/15 01:52:13;;;;;;;13.70;8.60;;;;;;;;;;1042528;28;20036;-64
2024/01/15 01:52:44;;;;;;;15.43;8.98;;;;;;;;;;1042480;28;20405;-65
2024/01/15 01:53:14;;;;;;;13.52;9.07;;;;;;;;;;1042530;28;20477;-65
2024/01/15 01:53:45;;;;;;;13.27;8.85;;;;;;;;;;1042475;28;20041;-65
2024/01/15 01:54:17;;;;;;;13.85;9.05;;;;;;;;;;1041255;28;20061;-65
2024/01/15 01:54:47;;;;;;;18.13;8.27;;;;;;;;;;1042243;28;20148;-65
2024/01/15 01:55:18;;;;;;;13.82;8.70;;;;;;;;;;1042566;28;20500;-65
2024/01/15 01:55:50;;;;;;;11.65;8.13;;;;;;;;;;1042470;28;20408;-65
2024/01/15 01:56:21;;;;;;;13.93;8.15;;;;;;;;;;1042910;28;20502;-66
2024/01/15 01:56:52;;;;;;;14.50;8.07;;;;;;;;;;1042504;28;20525;-65
2024/01/15 01:57:22;;;;;;;13.30;8.75;;;;;;;;;;1042504;28;20685;-65
2024/01/15 01:57:55;;;;;;;15.57;9.57;;;;;;;;;;1042682;28;22383;-66
2024/01/15 01:58:25;;;;;;;14.80;9.23;;;;;;;;;;1042251;28;20397;-65
2024/01/15 01:58:56;;;;;;;14.73;8.13;;;;;;;;;;1042488;28;20694;-65
2024/01/15 01:59:27;;;;;;;14.52;8.95;;;;;;;;;;1040992;28;20370;-66
2024/01/15 01:59:59;;;;;;;17.02;9.48;;;;;;;;;;1042515;28;20048;-66
2024/01/15 02:00:30;;;;;;;12.48;8.75;;;;;;;;;;1042659;28;20049;-65
2024/01/15 02:01:01;;;;;;;14.27;9.02;;;;;;;;;;1038710;28;20551;-65
2024/01/15 02:01:31;;;;;;;12.68;8.65;;;;;;;;;;1037906;28;20569;-65
2024/01/15 02:02:03;;;;;;;12.43;8.57;;;;;;;;;;1037340;28;20069;-65
2024/01/15 02:02:34;;;;;;;13.10;8.40;;;;;;;;;;1038719;28;20531;-65
2024/01/15 02:03:04;;;;;;;15.30;8.07;;;;;;;;;;1038371;28;20060;-65
2024/01/15 02:03:35;;;;;;;15.43;9.48;;;;;;;;;;1038256;28;20041;-65
2024/01/15 02:04:06;;;;;;;14.13;9.02;;;;;;;;;;1038061;28;20053;-65
2024/01/15 02:04:37;;;;;;;13.20;8.70;;;;;;;;;;1037790;28;20049;-65
2024/01/15 02:05:08;;;;;;;13.77;9.02;;;;;;;;;;1038429;28;20045;-66
2024/01/15 02:05:40;;;;;;;14.50;8.05;;;;;;;;;;1037876;28;20053;-65
2024/01/15 02:06:10;;;;;;;12.93;8.57;;;;;;;;;;1038222;28;20056;-65
2024/01/15 02:06:40;;;;;;;12.90;8.25;;;;;;;;;;1038526;28;20046;-65
2024/01/15 02:07:11;;;;;;;14.88;8.90;;;;;;;;;;1038747;28;20046;-65
2024/01/15 02:07:43;;;;;;;13.48;9.15;;;;;;;;;;1038010;28;20103;-66
2024/01/15 02:08:14;;;;;;;15.00;9.25;;;;;;;;;;1039010;28;20049;-65
2024/01/15 02:08:44;;;;;;;15.77;8.45;;;;;;;;;;1036553;28;20049;-65
2024/01/15 02:09:15;;;;;;;14.95;8.73;;;;;;;;;;1038919;28;20759;-65
2024/01/15 02:09:46;;;;;;;14.60;8.77;;;;;;;;;;1037589;28;20057;-65
2024/01/15 02:10:16;;;;;;;13.18;8.23;;;;;;;;;;1038776;28;20045;-66
2024/01/15 02:10:47;;;;;;;13.48;8.02;;;;;;;;;;1037859;28;20038;-65
2024/01/15 02:11:17;;;;;;;12.50;8.85;;;;;;;;;;1039028;28;22019;-65
2024/01/15 02:11:48;;;;;;;14.60;9.25;;;;;;;;;;1038394;28;20060;-65
2024/01/15 02:12:19;;;;;;;14.27;8.95;;;;;;;;;;1038572;28;20045;-65
2024/01/15 02:12:49;;;;;;;12.80;8.32;;;;;;;;;;1041701;28;20047;-65
2024/01/15 02:13:20;;;;;;;12.27;8.18;;;;;;;;;;1042462;28;20056;-65
2024/01/15 02:13:51;;;;;;;14.93;8.52;;;;;;;;;;1042554;28;20451;-65
2024/01/15 02:14:22;;;;;;;12.07;8.30;;;;;;;;;;1042492;28;20053;-65
2024/01/15 02:14:53;;;;;;;13.75;8.60;;;;;;;;;;1042438;28;20432;-65
2024/01/15 02:15:23;;;;;;;15.77;9.05;;;;;;;;;;1042883;28;20501;-65
2024/01/15 02:15:54;;;;;;;13.38;8.07;;;;;;;;;;1041191;28;20045;-65
2024/01/15 02:16:24;;;;;;;12.07;8.13;;;;;;;;;;1042845;28;20058;-65
2024/01/15 02:16:55;;;;;;;13.77;8.30;;;;;;;;;;1041431;28;20045;-65
2024/01/15 02:17:25;;;;;;;16.13;8.43;;;;;;;;;;1042944;28;20053;-66
2024/01/15 02:17:57;;;;;;;12.35;9.02;;;;;;;;;;1041597;28;20048;-66
2024/01/15 02:18:27;;;;;;;12.10;7.97;;;;;;;;;;1043199;28;20391;-65
2024/01/15 02:18:58;;;;;;;16.88;9.13;;;;;;;;;;1041691;28;20645;-66
2024/01/15 02:19:28;;;;;;;14.88;8.25;;;;;;;;;;1042842;28;20460;-66
2024/01/15 02:19:59;;;;;;;15.63;8.73;;;;;;;;;;1041939;28;20060;-65
2024/01/15 02:20:30;;;;;;;12.65;8.85;;;;;;;;;;1042185;28;20402;-65
2024/01/15 02:21:00;;;;;;;12.85;8.10;;;;;;;;;;1042287;28;20083;-65
2024/01/15 02:21:32;;;;;;;16.10;9.38;;;;;;;;;;1041723;28;20068;-65
2024/01/15 02:22:02;;;;;;;14.77;8.65;;;;;;;;;;1042492;28;20060;-65
2024/01/15 02:22:33;;;;;;;12.13;8.70;;;;;;;;;;1042167;28;20056;-65
2024/01/15 02:23:11;;;;;;;14.18;9.18;;;;;;;;;;1042627;28;20041;-65
2024/01/15 02:23:42;;;;;;;13.15;8.15;;;;;;;;;;1041672;28;20147;-66
2024/01/15 02:24:12;;;;;;;13.25;7.85;;;;;;;;;;1042690;28;20059;-65
2024/01/15 02:24:43;;;;;;;13.43;8.40;;;;;;;;;;1042383;28;20409;-65
2024/01/15 02:25:14;;;;;;;12.93;8.63;;;;;;;;;;1042599;28;20045;-66
2024/01/15 02:25:46;;;;;;;12.40;8.50;;;;;;;;;;1042800;28;20508;-65
2024/01/15 02:26:17;;;;;;;13.18;8.73;;;;;;;;;;1042558;28;20055;-66
2024/01/15 02:26:48;;;;;;;14.90;7.97;;;;;;;;;;1041825;28;20402;-65
2024/01/15 02:27:20;;;;;;;13.55;9.23;;;;;;;;;;1043033;28;20041;-66
2024/01/15 02:27:51;;;;;;;13.05;8.00;;;;;;;;;;1042354;28;20045;-66
2024/01/15 02:28:21;;;;;;;13.15;8.70;;;;;;;;;;1042520;28;20508;-65
2024/01/15 02:28:52;;;;;;;13.07;8.55;;;;;;;;;;1041980;28;20065;-65
2024/01/15 02:29:22;;;;;;;13.93;8.63;;;;;;;;;;1042941;28;20056;-65
2024/01/15 02:29:53;;;;;;;13.18;8.63;;;;;;;;;;1041996;28;20049;-66
2024/01/15 02:30:25;;;;;;;14.27;8.40;;;;;;;;;;1043009;28;20405;-65
2024/01/15 02:30:55;;;;;;;13.70;8.80;;;;;;;;;;1042163;28;20128;-65
2024/01/15 02:31:26;;;;;;;14.05;8.10;;;;;;;;;;1042408;28;20044;-66
2024/01/15 02:31:56;;;;;;;11.05;8.02;;;;;;;;;;1042676;28;20045;-65
2024/01/15 02:32:27;;;;;;;12.38;7.70;;;;;;;;;;1042202;28;20048;-65
2024/01/15 02:32:58;;;;;;;12.20;8.60;;;;;;;;;;1042813;28;20659;-65
2024/01/15 02:33:28;;;;;;;12.38;8.40;;;;;;;;;;1041741;28;20783;-66
2024/01/15 02:33:58;;;;;;;13.65;7.82;;;;;;;;;;1043119;28;20102;-65
2024/01/15 02:34:32;;;;;;;14.13;8.80;;;;;;;;;;1041611;28;20068;-66
2024/01/15 02:35:02;;;;;;;12.50;8.50;;;;;;;;;;1042525;28;20057;-65
2024/01/15 02:35:36;;;;;;;12.75;8.13;;;;;;;;;;1041620;28;20041;-66
2024/01/15 02:36:07;;;;;;;13.68;7.60;;;;;;;;;;1042741;28;20509;-65
2024/01/15 02:36:37;;;;;;;15.25;7.88;;;;;;;;;;1042030;28;20051;-65
2024/01/15 02:37:08;;;;;;;13.63;8.70;;;;;;;;;;1042717;28;20041;-65
2024/01/15 02:37:38;;;;;;;11.18;7.70;;;;;;;;;;1042137;28;20747;-66
2024/01/15 02:38:09;;;;;;;15.57;9.00;;;;;;;;;;1042992;28;20045;-66
2024/01/15 02:38:39;;;;;;;12.73;8.30;;;;;;;;;;1041743;28;20047;-66
2024/01/15 02:39:10;;;;;;;13.80;8.80;;;;;;;;;;1042973;28;20041;-65
2024/01/15 02:39:40;;;;;;;14.23;9.10;;;;;;;;;;1041798;28;20506;-65
2024/01/15 02:40:11;;;;;;;14.63;8.15;;;;;;;;;;1043096;28;20057;-65
2024/01/15 02:40:43;;;;;;;16.60;9.27;;;;;;;;;;1040439;28;20049;-65
2024/01/15 02:41:14;;;;;;;14.30;8.52;;;;;;;;;;1041994;28;20083;-66
2024/01/15 02:41:44;;;;;;;14.15;7.93;;;;;;;;;;1042683;28;20056;-65
2024/01/15 02:42:15;;;;;;;12.13;8.15;;;;;;;;;;1042209;28;20061;-65
2024/01/15 02:42:45;;;;;;;12.80;8.50;;;;;;;;;;1042425;28;20048;-66
2024/01/15 02:43:18;;;;;;;12.80;7.75;;;;;;;;;;1042235;28;20044;-66
2024/01/15 02:43:49;;;;;;;13.15;8.77;;;;;;;;;;1042396;28;20053;-65
2024/01/15 02:44:19;;;;;;;12.43;8.43;;;;;;;;;;1042317;28;20049;-65
2024/01/15 02:44:50;;;;;;;13.13;8.18;;;;;;;;;;1042480;28;20048;-66
2024/01/15 02:45:22;;;;;;;13.20;7.82;;;;;;;;;;1042812;28;20053;-65
2024/01/15 02:45:52;;;;;;;15.52;8.82;;;;;;;;;;1041779;28;20052;-65
2024/01/15 02:46:22;;;;;;;12.18;8.05;;;;;;;;;;1042741;28;20065;-65
2024/01/15 02:46:53;;;;;;;15.52;8.88;;;;;;;;;;1041947;28;20175;-66
2024/01/15 02:47:24;;;;;;;15.00;7.90;;;;;;;;;;1042624;28;20049;-65
2024/01/15 02:47:54;;;;;;;13.88;8.65;;;;;;;;;;1041099;28;20049;-65
2024/01/15 02:48:25;;;;;;;14.57;8.25;;;;;;;;;;1044366;28;20136;-65
2024/01/15 02:48:55;;;;;;;13.60;8.75;;;;;;;;;;1042536;28;20464;-65
2024/01/15 02:49:26;;;;;;;11.20;7.63;;;;;;;;;;1042360;28;20144;-65
2024/01/15 02:49:56;;;;;;;14.32;8.60;;;;;;;;;;1042654;28;20052;-65
2024/01/15 02:50:27;;;;;;;12.02;8.45;;;;;;;;;;1042528;28;20052;-65
2024/01/15 02:50:57;;;;;;;12.60;7.97;;;;;;;;;;1042228;28;20044;-65
2024/01/15 02:51:28;;;;;;;12.60;8.35;;;;;;;;;;1041851;28;20133;-66
2024/01/15 02:51:58;;;;;;;16.08;8.98;;;;;;;;;;1042488;28;20413;-66
2024/01/15 02:52:29;;;;;;;17.25;8.07;;;;;;;;;;1042305;28;20053;-65
2024/01/15 02:52:59;;;;;;;14.15;9.15;;;;;;;;;;1042245;28;20049;-66
2024/01/15 02:53:30;;;;;;;13.68;8.45;;;;;;;;;;1042074;28;20053;-65
2024/01/15 02:54:01;;;;;;;13.85;8.57;;;;;;;;;;1042530;28;22651;-66
2024/01/15 02:54:31;;;;;;;13.35;8.50;;;;;;;;;;1042390;28;20053;-66
2024/01/15 02:55:02;;;;;;;13.52;9.27;;;;;;;;;;1042446;28;20102;-66
2024/01/15 02:55:32;;;;;;;13.55;8.02;;;;;;;;;;1042143;28;20048;-66
2024/01/15 02:56:03;;;;;;;13.98;9.00;;;;;;;;;;1042269;28;20064;-66
2024/01/15 02:56:33;;;;;;;14.80;8.20;;;;;;;;;;1042260;28;20432;-66
2024/01/15 02:57:04;;;;;;;15.77;8.77;;;;;;;;;;1042957;28;20087;-66
2024/01/15 02:57:35;;;;;;;16.25;8.63;;;;;;;;;;1041656;28;20067;-66
2024/01/15 02:58:05;;;;;;;12.27;7.90;;;;;;;;;;1043038;28;20045;-65
2024/01/15 02:58:36;;;;;;;13.98;8.68;;;;;;;;;;1041541;28;20636;-66
2024/01/15 02:59:06;;;;;;;12.18;8.50;;;;;;;;;;1042983;28;20064;-65
2024/01/15 02:59:37;;;;;;;14.98;8.90;;;;;;;;;;1041523;28;20063;-66
2024/01/15 03:00:08;;;;;;;13.10;8.85;;;;;;;;;;1043115;28;20040;-66
2024/01/15 03:00:38;;;;;;;15.98;9.52;;;;;;;;;;1041930;28;20703;-65
2024/01/15 03:01:09;;;;;;;13.73;8.20;;;;;;;;;;1042566;28;20401;-65
2024/01/15 03:01:39;;;;;;;12.57;8.27;;;;;;;;;;1041473;28;20048;-65
2024/01/15 03:02:10;;;;;;;11.52;7.55;;;;;;;;;;1042732;28;20057;-65